createdAt,value
2022-11-05T00:00:38.982Z,90.99
2022-11-05T00:03:29.623Z,91.40
2022-11-05T00:06:16.604Z,91.55
2022-11-05T00:09:03.825Z,91.41
2022-11-05T00:11:51.045Z,91.10
2022-11-05T00:14:38.590Z,91.03
2022-11-05T00:17:08.232Z,90.76
2022-11-05T00:19:37.281Z,90.76
2022-11-05T00:22:24.748Z,90.77
2022-11-05T00:25:12.099Z,90.49
2022-11-05T00:27:41.724Z,89.78
2022-11-05T00:30:12.175Z,89.22
2022-11-05T00:32:40.771Z,89.24
2022-11-05T00:35:09.556Z,89.43
2022-11-05T00:37:37.900Z,89.30
2022-11-05T00:40:07.351Z,89.30
2022-11-05T00:42:54.684Z,89.42
2022-11-05T00:45:23.049Z,90.32
2022-11-05T00:48:09.961Z,90.38
2022-11-05T00:50:38.248Z,90.20
2022-11-05T00:53:07.635Z,90.28
2022-11-05T00:55:45.596Z,90.61
2022-11-05T00:58:17.624Z,90.62
2022-11-05T01:00:53.182Z,90.86
2022-11-05T01:03:24.729Z,90.82
2022-11-05T01:05:58.749Z,90.90
2022-11-05T01:08:28.456Z,90.81
2022-11-05T01:10:58.493Z,91.00
2022-11-05T01:13:29.431Z,91.00
2022-11-05T01:15:57.816Z,91.01
2022-11-05T01:18:26.085Z,90.68
2022-11-05T01:20:54.459Z,90.71
2022-11-05T01:23:22.673Z,90.59
2022-11-05T01:25:51.124Z,90.64
2022-11-05T01:28:19.677Z,90.66
2022-11-05T01:30:56.294Z,90.78
2022-11-05T01:33:25.499Z,90.44
2022-11-05T01:35:55.603Z,90.67
2022-11-05T01:38:24.164Z,90.47
2022-11-05T01:40:53.299Z,90.73
2022-11-05T01:43:24.237Z,90.54
2022-11-05T01:45:57.529Z,90.55
2022-11-05T01:48:31.464Z,90.45
2022-11-05T01:51:05.460Z,90.56
2022-11-05T01:53:42.647Z,90.07
2022-11-05T01:56:14.708Z,89.95
2022-11-05T01:58:50.975Z,89.71
2022-11-05T02:01:20.009Z,89.58
2022-11-05T02:03:51.234Z,89.45
2022-11-05T02:06:20.343Z,89.42
2022-11-05T02:09:24.463Z,88.98
2022-11-05T02:11:52.880Z,88.88
2022-11-05T02:14:21.205Z,88.80
2022-11-05T02:16:58.910Z,92.18
2022-11-05T02:19:50.231Z,90.08
2022-11-05T02:22:52.298Z,89.00
2022-11-05T02:25:45.162Z,89.18
2022-11-05T02:28:25.208Z,89.11
2022-11-05T02:30:53.394Z,89.26
2022-11-05T02:33:30.063Z,89.37
2022-11-05T02:36:13.086Z,89.15
2022-11-05T02:38:41.173Z,89.07
2022-11-05T02:41:23.962Z,89.14
2022-11-05T02:45:08.729Z,89.29
2022-11-05T02:47:46.978Z,89.48
2022-11-05T02:50:50.551Z,89.41
2022-11-05T02:53:28.147Z,89.33
2022-11-05T02:56:12.756Z,89.42
2022-11-05T02:58:40.477Z,89.54
2022-11-05T03:01:10.914Z,89.30
2022-11-05T03:03:48.324Z,89.27
2022-11-05T03:06:23.518Z,89.16
2022-11-05T03:09:18.714Z,89.33
2022-11-05T03:12:11.367Z,89.45
2022-11-05T03:15:15.961Z,89.51
2022-11-05T03:17:45.658Z,89.56
2022-11-05T03:20:56.305Z,89.48
2022-11-05T03:23:37.255Z,89.31
2022-11-05T03:26:21.480Z,88.88
2022-11-05T03:28:56.047Z,88.62
2022-11-05T03:31:24.759Z,88.30
2022-11-05T03:33:54.617Z,88.01
2022-11-05T03:36:27.242Z,87.91
2022-11-05T03:38:55.829Z,87.89
2022-11-05T03:41:24.790Z,87.91
2022-11-05T03:43:56.707Z,87.75
2022-11-05T03:46:38.020Z,87.40
2022-11-05T03:49:10.609Z,87.48
2022-11-05T03:51:59.791Z,87.44
2022-11-05T03:54:27.840Z,87.36
2022-11-05T03:56:57.218Z,87.21
2022-11-05T03:59:24.849Z,87.30
2022-11-05T04:01:53.977Z,87.24
2022-11-05T04:04:20.799Z,87.16
2022-11-05T04:07:06.009Z,86.96
2022-11-05T04:09:51.112Z,87.02
2022-11-05T04:12:36.293Z,87.03
2022-11-05T04:15:03.229Z,87.31
2022-11-05T04:17:30.056Z,87.24
2022-11-05T04:20:15.232Z,87.15
2022-11-05T04:23:00.255Z,87.39
2022-11-05T04:25:27.010Z,87.52
2022-11-05T04:27:59.874Z,87.51
2022-11-05T04:30:26.645Z,87.39
2022-11-05T04:33:11.490Z,87.53
2022-11-05T04:35:44.178Z,87.56
2022-11-05T04:38:14.617Z,87.46
2022-11-05T04:40:41.782Z,87.58
2022-11-05T04:43:15.049Z,87.82
2022-11-05T04:45:42.697Z,88.21
2022-11-05T04:48:09.470Z,88.16
2022-11-05T04:50:36.819Z,88.28
2022-11-05T04:53:03.907Z,88.76
2022-11-05T04:55:30.665Z,89.15
2022-11-05T04:57:57.345Z,89.27
2022-11-05T05:00:24.223Z,89.28
2022-11-05T05:02:51.140Z,89.60
2022-11-05T05:05:17.962Z,89.43
2022-11-05T05:07:45.073Z,89.37
2022-11-05T05:10:12.482Z,89.53
2022-11-05T05:12:39.370Z,89.44
2022-11-05T05:15:06.658Z,89.50
2022-11-05T05:17:33.973Z,89.23
2022-11-05T05:20:19.844Z,88.71
2022-11-05T05:22:54.084Z,88.49
2022-11-05T05:25:21.930Z,88.24
2022-11-05T05:27:48.745Z,88.06
2022-11-05T05:30:15.554Z,87.98
2022-11-05T05:32:42.267Z,87.95
2022-11-05T05:35:09.455Z,87.79
2022-11-05T05:37:36.179Z,87.79
2022-11-05T05:40:03.150Z,87.40
2022-11-05T05:42:29.987Z,87.18
2022-11-05T05:44:56.703Z,87.19
2022-11-05T05:47:23.525Z,87.15
2022-11-05T05:49:50.403Z,86.97
2022-11-05T05:52:17.314Z,87.17
2022-11-05T05:54:44.151Z,86.98
2022-11-05T05:57:11.023Z,86.95
2022-11-05T05:59:38.514Z,86.89
2022-11-05T06:02:05.994Z,87.28
2022-11-05T06:04:32.886Z,87.33
2022-11-05T06:06:59.764Z,87.43
2022-11-05T06:09:27.324Z,87.01
2022-11-05T06:11:54.300Z,86.91
2022-11-05T06:14:21.455Z,86.66
2022-11-05T06:16:48.262Z,86.82
2022-11-05T06:19:15.077Z,86.75
2022-11-05T06:21:41.859Z,86.90
2022-11-05T06:24:08.639Z,86.90
2022-11-05T06:26:35.588Z,86.74
2022-11-05T06:29:02.416Z,86.59
2022-11-05T06:31:29.272Z,86.56
2022-11-05T06:33:56.121Z,86.66
2022-11-05T06:36:22.865Z,86.73
2022-11-05T06:38:49.686Z,87.03
2022-11-05T06:41:16.721Z,87.17
2022-11-05T06:43:43.618Z,87.17
2022-11-05T06:46:11.001Z,87.29
2022-11-05T06:48:38.154Z,87.53
2022-11-05T06:51:06.533Z,87.76
2022-11-05T06:53:34.211Z,87.99
2022-11-05T06:56:02.430Z,88.28
2022-11-05T06:58:30.499Z,88.27
2022-11-05T07:01:02.462Z,88.83
2022-11-05T07:03:30.633Z,89.28
2022-11-05T07:06:03.053Z,89.47
2022-11-05T07:08:31.953Z,89.59
2022-11-05T07:11:00.023Z,89.52
2022-11-05T07:13:31.849Z,89.50
2022-11-05T07:15:59.419Z,89.58
2022-11-05T07:18:26.328Z,89.77
2022-11-05T07:20:53.596Z,89.68
2022-11-05T07:23:21.100Z,89.72
2022-11-05T07:25:48.731Z,89.75
2022-11-05T07:28:16.813Z,89.89
2022-11-05T07:30:44.434Z,90.08
2022-11-05T07:33:12.346Z,90.00
2022-11-05T07:35:39.801Z,89.99
2022-11-05T07:38:11.289Z,90.01
2022-11-05T07:40:39.651Z,90.00
2022-11-05T07:43:08.003Z,89.97
2022-11-05T07:45:35.087Z,89.65
2022-11-05T07:48:03.521Z,89.29
2022-11-05T07:50:33.005Z,89.11
2022-11-05T07:53:05.179Z,89.22
2022-11-05T07:55:32.608Z,89.24
2022-11-05T07:58:00.290Z,89.54
2022-11-05T08:00:29.084Z,89.72
2022-11-05T08:03:09.483Z,89.45
2022-11-05T08:05:40.485Z,89.49
2022-11-05T08:08:09.317Z,89.14
2022-11-05T08:10:37.703Z,88.89
2022-11-05T08:13:06.991Z,88.76
2022-11-05T08:15:37.029Z,88.59
2022-11-05T08:18:12.367Z,87.90
2022-11-05T08:20:40.934Z,87.66
2022-11-05T08:23:09.192Z,87.57
2022-11-05T08:25:37.379Z,87.39
2022-11-05T08:28:08.605Z,87.45
2022-11-05T08:30:37.885Z,87.23
2022-11-05T08:33:12.401Z,86.80
2022-11-05T08:35:41.296Z,85.77
2022-11-05T08:38:15.334Z,85.64
2022-11-05T08:40:45.169Z,85.45
2022-11-05T08:43:13.893Z,85.30
2022-11-05T08:45:41.743Z,85.75
2022-11-05T08:48:12.011Z,85.60
2022-11-05T08:50:39.278Z,85.62
2022-11-05T08:53:08.439Z,85.90
2022-11-05T08:55:36.249Z,85.68
2022-11-05T08:58:12.002Z,85.59
2022-11-05T09:00:39.635Z,85.04
2022-11-05T09:03:09.083Z,84.57
2022-11-05T09:05:41.367Z,84.62
2022-11-05T09:08:11.134Z,84.26
2022-11-05T09:10:42.487Z,84.12
2022-11-05T09:13:16.650Z,84.38
2022-11-05T09:15:47.189Z,84.51
2022-11-05T09:18:15.193Z,84.18
2022-11-05T09:20:42.272Z,84.12
2022-11-05T09:23:11.330Z,83.74
2022-11-05T09:25:39.383Z,83.81
2022-11-05T09:28:16.220Z,84.44
2022-11-05T09:30:47.171Z,84.00
2022-11-05T09:33:15.465Z,83.45
2022-11-05T09:35:42.982Z,83.53
2022-11-05T09:38:10.601Z,83.61
2022-11-05T09:41:00.685Z,83.61
2022-11-05T09:43:36.954Z,83.43
2022-11-05T09:46:38.340Z,83.44
2022-11-05T09:49:11.301Z,83.48
2022-11-05T09:51:41.109Z,83.21
2022-11-05T09:54:11.748Z,83.04
2022-11-05T09:56:41.796Z,83.42
2022-11-05T09:59:28.677Z,82.79
2022-11-05T10:02:11.840Z,83.03
2022-11-05T10:04:41.780Z,83.58
2022-11-05T10:07:15.299Z,82.90
2022-11-05T10:09:49.198Z,83.27
2022-11-05T10:12:34.617Z,82.75
2022-11-05T10:15:15.259Z,82.88
2022-11-05T10:17:47.842Z,82.63
2022-11-05T10:20:30.735Z,82.03
2022-11-05T10:23:11.009Z,82.24
2022-11-05T10:25:46.017Z,82.04
2022-11-05T10:28:18.934Z,82.10
2022-11-05T10:30:49.451Z,81.94
2022-11-05T10:33:31.489Z,81.85
2022-11-05T10:36:09.857Z,81.59
2022-11-05T10:38:40.298Z,80.63
2022-11-05T10:41:31.286Z,81.32
2022-11-05T10:44:13.490Z,81.45
2022-11-05T10:47:05.706Z,81.01
2022-11-05T10:49:54.947Z,80.56
2022-11-05T10:52:26.503Z,80.60
2022-11-05T10:54:59.822Z,80.23
2022-11-05T10:57:36.818Z,80.15
2022-11-05T11:00:16.513Z,79.19
2022-11-05T11:02:46.902Z,79.36
2022-11-05T11:05:30.998Z,78.63
2022-11-05T11:07:58.097Z,78.32
2022-11-05T11:10:26.935Z,79.06
2022-11-05T11:12:55.603Z,79.85
2022-11-05T11:15:28.941Z,79.44
2022-11-05T11:17:56.494Z,79.34
2022-11-05T11:20:26.000Z,79.41
2022-11-05T11:23:02.262Z,78.81
2022-11-05T11:25:38.211Z,77.61
2022-11-05T11:28:11.109Z,77.00
2022-11-05T11:30:39.044Z,77.80
2022-11-05T11:33:08.972Z,77.71
2022-11-05T11:35:40.999Z,77.66
2022-11-05T11:38:14.556Z,78.23
2022-11-05T11:40:42.718Z,76.46
2022-11-05T11:43:33.513Z,75.37
2022-11-05T11:46:07.799Z,74.08
2022-11-05T11:48:41.846Z,73.99
2022-11-05T11:51:40.177Z,73.88
2022-11-05T11:54:20.797Z,74.92
2022-11-05T11:56:48.166Z,74.68
2022-11-05T12:00:01.972Z,74.20
2022-11-05T12:02:49.854Z,75.19
2022-11-05T12:05:19.874Z,74.63
2022-11-05T12:08:07.327Z,74.97
2022-11-05T12:11:05.237Z,75.00
2022-11-05T12:14:09.264Z,73.49
2022-11-05T12:16:42.953Z,72.52
2022-11-05T12:19:24.357Z,73.21
2022-11-05T12:22:09.356Z,72.49
2022-11-05T12:24:57.310Z,72.11
2022-11-05T12:27:45.828Z,71.82
2022-11-05T12:30:21.384Z,72.67
2022-11-05T12:33:34.827Z,71.66
2022-11-05T12:36:04.570Z,70.70
2022-11-05T12:38:32.625Z,71.15
2022-11-05T12:41:32.466Z,71.23
2022-11-05T12:44:15.896Z,71.31
2022-11-05T12:47:07.794Z,70.71
2022-11-05T12:49:53.549Z,70.00
2022-11-05T12:52:42.491Z,69.16
2022-11-05T12:55:19.031Z,68.94
2022-11-05T12:57:51.286Z,68.69
2022-11-05T13:00:21.755Z,67.94
2022-11-05T13:03:07.094Z,67.14
2022-11-05T13:05:38.814Z,67.46
2022-11-05T13:08:15.189Z,68.03
2022-11-05T13:11:11.019Z,67.91
2022-11-05T13:13:53.425Z,67.77
2022-11-05T13:16:37.073Z,69.23
2022-11-05T13:19:13.316Z,69.55
2022-11-05T13:21:43.436Z,69.58
2022-11-05T13:24:20.177Z,69.82
2022-11-05T13:26:53.826Z,70.22
2022-11-05T13:29:28.317Z,69.52
2022-11-05T13:32:11.675Z,69.41
2022-11-05T13:34:39.134Z,69.82
2022-11-05T13:37:27.927Z,69.79
2022-11-05T13:39:59.310Z,68.97
2022-11-05T13:42:48.716Z,69.91
2022-11-05T13:45:40.905Z,70.22
2022-11-05T13:48:28.259Z,70.26
2022-11-05T13:51:24.592Z,70.14
2022-11-05T13:54:17.766Z,68.87
2022-11-05T13:57:13.073Z,69.16
2022-11-05T13:59:49.471Z,69.08
2022-11-05T14:02:22.201Z,69.15
2022-11-05T14:05:01.001Z,69.20
2022-11-05T14:07:36.089Z,69.19
2022-11-05T14:10:16.228Z,69.18
2022-11-05T14:12:50.488Z,69.19
2022-11-05T14:15:27.594Z,69.67
2022-11-05T14:18:23.488Z,68.72
2022-11-05T14:21:00.839Z,68.44
2022-11-05T14:23:50.059Z,67.71
2022-11-05T14:26:23.263Z,68.24
2022-11-05T14:29:02.409Z,68.77
2022-11-05T14:32:13.074Z,69.29
2022-11-05T14:34:53.268Z,68.71
2022-11-05T14:37:21.925Z,68.36
2022-11-05T14:39:49.408Z,68.72
2022-11-05T14:42:23.005Z,68.60
2022-11-05T14:45:19.716Z,68.63
2022-11-05T14:48:01.693Z,68.96
2022-11-05T14:50:48.650Z,69.37
2022-11-05T14:53:45.028Z,69.39
2022-11-05T14:56:18.426Z,69.45
2022-11-05T14:58:46.142Z,69.58
2022-11-05T15:01:13.007Z,69.70
2022-11-05T15:03:45.387Z,69.97
2022-11-05T15:06:30.634Z,70.04
2022-11-05T15:09:00.212Z,70.02
2022-11-05T15:11:27.049Z,70.28
2022-11-05T15:13:53.883Z,70.40
2022-11-05T15:16:46.318Z,70.64
2022-11-05T15:19:21.194Z,70.74
2022-11-05T15:21:49.749Z,70.86
2022-11-05T15:24:18.827Z,71.18
2022-11-05T15:27:04.610Z,71.11
2022-11-05T15:29:33.032Z,71.48
2022-11-05T15:32:00.986Z,71.52
2022-11-05T15:34:35.302Z,71.78
2022-11-05T15:37:10.603Z,71.78
2022-11-05T15:39:46.198Z,71.79
2022-11-05T15:42:22.517Z,72.12
2022-11-05T15:44:55.132Z,72.22
2022-11-05T15:47:29.805Z,72.46
2022-11-05T15:50:01.052Z,72.55
2022-11-05T15:52:41.682Z,72.78
2022-11-05T15:55:12.258Z,72.84
2022-11-05T15:58:10.587Z,72.89
2022-11-05T16:00:38.613Z,73.05
2022-11-05T16:03:21.909Z,73.00
2022-11-05T16:05:49.817Z,73.02
2022-11-05T16:08:23.526Z,73.11
2022-11-05T16:11:00.153Z,73.34
2022-11-05T16:13:39.867Z,73.22
2022-11-05T16:16:13.185Z,73.42
2022-11-05T16:18:42.204Z,73.50
2022-11-05T16:21:17.006Z,73.63
2022-11-05T16:24:00.332Z,73.90
2022-11-05T16:27:01.360Z,74.01
2022-11-05T16:29:28.471Z,74.05
2022-11-05T16:31:58.524Z,74.12
2022-11-05T16:34:42.911Z,74.19
2022-11-05T16:37:15.955Z,74.27
2022-11-05T16:39:43.392Z,74.22
2022-11-05T16:42:33.981Z,74.15
2022-11-05T16:45:14.717Z,74.23
2022-11-05T16:47:46.658Z,74.17
2022-11-05T16:50:21.902Z,74.15
2022-11-05T16:52:50.622Z,74.07
2022-11-05T16:55:19.043Z,74.01
2022-11-05T16:57:50.501Z,73.88
2022-11-05T17:00:20.439Z,73.85
2022-11-05T17:02:48.812Z,73.82
2022-11-05T17:05:27.326Z,73.81
2022-11-05T17:07:57.946Z,73.93
2022-11-05T17:10:27.424Z,74.05
2022-11-05T17:12:57.033Z,74.21
2022-11-05T17:15:35.899Z,74.31
2022-11-05T17:18:05.341Z,74.47
2022-11-05T17:20:42.258Z,74.35
2022-11-05T17:23:12.429Z,74.38
2022-11-05T17:25:41.533Z,74.23
2022-11-05T17:28:10.197Z,74.07
2022-11-05T17:30:41.656Z,73.99
2022-11-05T17:33:11.486Z,73.84
2022-11-05T17:35:41.025Z,73.90
2022-11-05T17:38:11.479Z,73.92
2022-11-05T17:40:41.646Z,73.96
2022-11-05T17:43:11.886Z,74.03
2022-11-05T17:45:48.442Z,74.07
2022-11-05T17:48:16.789Z,74.20
2022-11-05T17:50:47.649Z,74.27
2022-11-05T17:53:17.563Z,74.49
2022-11-05T17:55:46.584Z,74.66
2022-11-05T17:58:15.223Z,74.82
2022-11-05T18:00:44.926Z,74.98
2022-11-05T18:03:15.518Z,75.10
2022-11-05T18:05:43.754Z,75.31
2022-11-05T18:08:12.144Z,75.52
2022-11-05T18:10:40.746Z,75.72
2022-11-05T18:13:09.591Z,75.78
2022-11-05T18:15:41.603Z,75.86
2022-11-05T18:18:09.677Z,76.02
2022-11-05T18:20:38.269Z,76.18
2022-11-05T18:23:07.176Z,76.18
2022-11-05T18:25:36.430Z,76.28
2022-11-05T18:28:04.097Z,76.37
2022-11-05T18:30:32.719Z,76.36
2022-11-05T18:33:00.827Z,76.38
2022-11-05T18:35:29.936Z,76.43
2022-11-05T18:37:59.800Z,76.46
2022-11-05T18:40:29.621Z,76.44
2022-11-05T18:43:02.579Z,76.48
2022-11-05T18:45:31.689Z,76.44
2022-11-05T18:48:03.807Z,76.27
2022-11-05T18:50:35.333Z,76.32
2022-11-05T18:53:12.727Z,76.08
2022-11-05T18:55:43.021Z,75.88
2022-11-05T18:58:12.581Z,75.70
2022-11-05T19:00:44.169Z,75.57
2022-11-05T19:03:17.125Z,75.45
2022-11-05T19:05:45.745Z,75.42
2022-11-05T19:08:14.491Z,75.39
2022-11-05T19:10:42.514Z,75.39
2022-11-05T19:13:09.959Z,75.58
2022-11-05T19:15:43.076Z,75.57
2022-11-05T19:18:11.373Z,75.56
2022-11-05T19:20:39.462Z,75.58
2022-11-05T19:23:07.616Z,75.70
2022-11-05T19:25:37.561Z,75.67
2022-11-05T19:28:06.337Z,75.79
2022-11-05T19:30:34.489Z,75.84
2022-11-05T19:33:02.397Z,75.90
2022-11-05T19:35:30.348Z,75.84
2022-11-05T19:37:58.445Z,75.83
2022-11-05T19:40:27.220Z,75.75
2022-11-05T19:42:55.388Z,75.50
2022-11-05T19:45:43.501Z,75.41
2022-11-05T19:48:17.779Z,75.21
2022-11-05T19:50:47.406Z,75.18
2022-11-05T19:53:15.634Z,75.16
2022-11-05T19:55:44.889Z,75.09
2022-11-05T19:58:13.782Z,74.97
2022-11-05T20:00:44.502Z,75.02
2022-11-05T20:03:13.909Z,74.93
2022-11-05T20:05:41.527Z,74.86
2022-11-05T20:08:09.246Z,74.77
2022-11-05T20:10:37.302Z,74.67
2022-11-05T20:13:04.729Z,74.53
2022-11-05T20:15:37.044Z,74.50
2022-11-05T20:18:06.543Z,74.55
2022-11-05T20:20:33.981Z,74.56
2022-11-05T20:23:01.135Z,74.56
2022-11-05T20:25:28.305Z,74.52
2022-11-05T20:27:56.443Z,74.48
2022-11-05T20:30:23.439Z,74.52
2022-11-05T20:32:55.927Z,74.56
2022-11-05T20:35:24.494Z,74.65
2022-11-05T20:37:54.246Z,74.50
2022-11-05T20:40:22.679Z,74.41
2022-11-05T20:42:50.574Z,74.42
2022-11-05T20:45:18.103Z,74.30
2022-11-05T20:47:45.475Z,74.28
2022-11-05T20:50:12.802Z,74.47
2022-11-05T20:52:40.080Z,74.54
2022-11-05T20:55:10.135Z,74.63
2022-11-05T20:57:38.448Z,74.59
2022-11-05T21:00:07.839Z,74.59
2022-11-05T21:02:35.451Z,74.71
2022-11-05T21:05:03.681Z,74.62
2022-11-05T21:07:31.517Z,74.47
2022-11-05T21:09:59.050Z,74.59
2022-11-05T21:12:26.256Z,74.63
2022-11-05T21:14:53.494Z,74.72
2022-11-05T21:17:21.289Z,74.75
2022-11-05T21:19:48.655Z,74.77
2022-11-05T21:22:15.869Z,74.85
2022-11-05T21:24:43.605Z,74.89
2022-11-05T21:27:10.914Z,75.02
2022-11-05T21:29:38.347Z,74.99
2022-11-05T21:32:05.595Z,75.04
2022-11-05T21:34:33.677Z,75.19
2022-11-05T21:37:01.317Z,75.16
2022-11-05T21:39:28.560Z,74.97
2022-11-05T21:41:56.453Z,74.70
2022-11-05T21:44:24.959Z,74.55
2022-11-05T21:46:56.244Z,74.53
2022-11-05T21:49:24.935Z,74.25
2022-11-05T21:52:11.059Z,74.10
2022-11-05T21:54:57.501Z,74.11
2022-11-05T21:57:43.911Z,74.26
2022-11-05T22:00:11.860Z,74.44
2022-11-05T22:02:39.457Z,74.69
2022-11-05T22:05:07.986Z,74.99
2022-11-05T22:07:38.419Z,75.16
2022-11-05T22:10:14.623Z,75.42
2022-11-05T22:12:45.145Z,75.62
2022-11-05T22:15:13.312Z,75.86
2022-11-05T22:17:46.191Z,75.80
2022-11-05T22:20:15.580Z,76.03
2022-11-05T22:22:44.955Z,76.11
2022-11-05T22:25:13.800Z,76.32
2022-11-05T22:27:43.013Z,76.37
2022-11-05T22:30:11.104Z,76.48
2022-11-05T22:32:38.568Z,76.63
2022-11-05T22:35:06.075Z,76.66
2022-11-05T22:37:33.093Z,76.57
2022-11-05T22:40:00.131Z,76.60
2022-11-05T22:42:27.416Z,76.57
2022-11-05T22:44:54.464Z,76.53
2022-11-05T22:47:21.366Z,76.32
2022-11-05T22:49:49.690Z,76.09
2022-11-05T22:52:16.517Z,75.50
2022-11-05T22:54:43.423Z,75.20
2022-11-05T22:57:10.380Z,75.06
2022-11-05T22:59:41.564Z,74.93
2022-11-05T23:02:10.132Z,74.90
2022-11-05T23:04:37.554Z,74.99
2022-11-05T23:07:27.537Z,74.81
2022-11-05T23:10:16.222Z,74.54
2022-11-05T23:12:43.816Z,74.37
2022-11-05T23:15:34.763Z,74.58
2022-11-05T23:18:17.129Z,75.05
2022-11-05T23:21:02.996Z,75.36
2022-11-05T23:23:48.419Z,75.35
2022-11-05T23:26:33.712Z,75.24
2022-11-05T23:29:00.548Z,75.09
2022-11-05T23:31:45.695Z,75.03
2022-11-05T23:34:12.469Z,74.94
2022-11-05T23:36:57.646Z,74.63
2022-11-05T23:39:24.424Z,74.23
2022-11-05T23:42:09.496Z,74.05
2022-11-05T23:44:54.946Z,74.09
2022-11-05T23:47:39.818Z,73.99
2022-11-05T23:50:06.953Z,74.03
2022-11-05T23:52:33.987Z,74.12
2022-11-05T23:55:01.118Z,74.05
2022-11-05T23:57:28.057Z,74.12
2022-11-05T23:59:55.209Z,74.15
